Terminal Aerodrome Forecast
Issued by NWS Cheyenne, WY

Home | Current Version | Previous Version | Text Only | Print | Product List | Glossary On
Versions: 1 2 3 4 5 6 7 8 9 10 11 12 13 14 15 16
000
FTUS45 KCYS 231726
TAFCYS
TAF
KCYS 231726Z 2318/2418 28020G28KT P6SM SCT250
     FM240000 27014KT P6SM SCT250
     FM241200 28022G34KT P6SM SCT250
     FM241500 29028G44KT P6SM SKC=

USA.gov is the U.S. government's official web portal to all federal, state and local government web resources and services.